Andover, OH

4:48 AM EDT on May 06, 2015 (GMT -0400)
Port Meadville | | Change Station
CLOSE
Current Station
Airport
Location: Meadville,
Elevation: 1401 ft
Nearby Weather Stations

Elev 1401 ft 41.63 °N, 80.21 °W | Updated 10 minutes ago

Rain
Rain
59 °F
Feels Like 59 °F
N
0
Wind Variable Wind from North

Today
High -- | Low -- °F
--% Chance of Precip.
Yesterday
High -- | Low -- °F
Precip. -- in
6:13 AM 8:25 PM
Waning Gibbous, 95% visible
Pressure 30.22 in
Visibility 1.2 miles
Clouds Mostly Cloudy 4200 ft
Mostly Cloudy 5000 ft
Overcast 6000 ft
Dew Point 57 °F
Humidity 93%
Rainfall 0.17 in
Snow Depth Not available.
UV 0 out of 12
Pollen 5.20 out of 12
Air Quality Not available.
Flu Activity Regional
SPECI KGKJ 060838Z AUTO 00000KT 1 1/4SM -RA BR BKN042 BKN050 OVC060 15/14 A3022 RMK AO2 P0032 T01500139 TSNO

More Conditions Fewer Conditions

Pressure 30.22 in
Visibility 1.2 miles
Clouds Mostly Cloudy 4200 ft
Mostly Cloudy 5000 ft
Overcast 6000 ft
Dew Point 57 °F
Humidity 93%
Rainfall 0.17 in
Snow Depth Not available.
UV 0 out of 12
Pollen 5.20 out of 12
Air Quality Not available.
Flu Activity Regional
SPECI KGKJ 060838Z AUTO 00000KT 1 1/4SM -RA BR BKN042 BKN050 OVC060 15/14 A3022 RMK AO2 P0032 T01500139 TSNO

More Conditions Fewer Conditions

10-Day Weather Forecast

Almanac

Astronomy

May. 06, 2015 Rise Set
Actual Time
Civil Twilight
Nautical Twilight
Astronomical Twilight
Moon
Length of Visible Light
Length of Day
Tomorrow will be .
, % of the Moon is Illuminated

Today's Extremes

State Highs State Lows

Community

WunderPhotos

Upload Photos

1,818,857 photos uploaded!

WunderBlogs® & News

Nearby

Air Quality

  Air Quality AQ Index Pollutant
Not available.

Snow Depth

Station Depth Elevation

Earthquake Activity

City Distance Mag. Time & Date
Minimum magnitude displayed is 2.5.

Coastal Water Temperatures

Place Temperature

Stations

Nearby Weather Stations

Station Location Temp. Windchill Dew Point Humidity Wind Precip. Elev Updated Type